createdAt,value
2022-10-18T00:00:06.414Z,94.70
2022-10-18T00:02:34.284Z,94.90
2022-10-18T00:05:02.161Z,95.60
2022-10-18T00:07:30.828Z,95.60
2022-10-18T00:09:58.607Z,95.30
2022-10-18T00:12:26.180Z,95.40
2022-10-18T00:14:53.806Z,95.90
2022-10-18T00:17:21.450Z,95.80
2022-10-18T00:19:50.676Z,95.90
2022-10-18T00:22:18.174Z,95.80
2022-10-18T00:24:45.998Z,95.60
2022-10-18T00:27:13.586Z,95.30
2022-10-18T00:29:41.166Z,95.40
2022-10-18T00:32:09.134Z,95.20
2022-10-18T00:34:39.090Z,95.20
2022-10-18T00:37:06.997Z,95.00
2022-10-18T00:39:34.820Z,94.90
2022-10-18T00:42:04.479Z,94.90
2022-10-18T00:44:32.222Z,94.80
2022-10-18T00:47:02.602Z,94.60
2022-10-18T00:49:33.813Z,94.50
2022-10-18T00:52:04.483Z,94.50
2022-10-18T00:54:33.979Z,94.30
2022-10-18T00:57:05.553Z,94.20
2022-10-18T00:59:34.046Z,94.10
2022-10-18T01:02:02.484Z,94.10
2022-10-18T01:04:33.391Z,93.80
2022-10-18T01:07:17.521Z,93.60
2022-10-18T01:10:05.700Z,93.50
2022-10-18T01:12:40.778Z,93.40
2022-10-18T01:15:23.649Z,93.40
2022-10-18T01:18:06.706Z,93.40
2022-10-18T01:20:40.455Z,93.50
2022-10-18T01:23:14.621Z,93.20
2022-10-18T01:25:42.535Z,93.20
2022-10-18T01:28:25.843Z,93.10
2022-10-18T01:31:04.628Z,92.90
2022-10-18T01:33:51.381Z,93.00
2022-10-18T01:36:24.854Z,92.50
2022-10-18T01:38:56.696Z,92.30
2022-10-18T01:41:25.034Z,92.20
2022-10-18T01:43:55.657Z,92.10
2022-10-18T01:46:25.821Z,92.00
2022-10-18T01:48:58.812Z,91.90
2022-10-18T01:51:29.167Z,91.70
2022-10-18T01:53:59.496Z,91.50
2022-10-18T01:56:45.619Z,91.30
2022-10-18T01:59:32.729Z,90.00
2022-10-18T02:02:01.896Z,90.20
2022-10-18T02:04:47.945Z,90.20
2022-10-18T02:07:34.181Z,86.30
2022-10-18T02:10:02.535Z,88.60
2022-10-18T02:12:33.344Z,88.00
2022-10-18T02:15:04.571Z,88.20
2022-10-18T02:17:37.861Z,88.10
2022-10-18T02:20:07.529Z,87.90
2022-10-18T02:22:36.774Z,80.90
2022-10-18T02:25:09.014Z,76.10
2022-10-18T02:27:37.291Z,79.10
2022-10-18T02:30:06.612Z,82.20
2022-10-18T02:32:43.606Z,81.80
2022-10-18T02:35:31.099Z,79.30
2022-10-18T02:37:59.396Z,81.60
2022-10-18T02:40:27.289Z,82.30
2022-10-18T02:42:56.592Z,72.00
2022-10-18T02:45:25.495Z,78.50
2022-10-18T02:47:54.128Z,81.00
2022-10-18T02:50:22.640Z,81.80
2022-10-18T02:52:50.243Z,78.40
2022-10-18T02:55:19.153Z,81.00
2022-10-18T02:57:49.859Z,69.00
2022-10-18T03:00:17.951Z,69.00
2022-10-18T03:02:52.267Z,72.30
2022-10-18T03:05:21.276Z,78.20
2022-10-18T03:07:50.111Z,76.30
2022-10-18T03:10:18.490Z,78.30
2022-10-18T03:12:47.627Z,72.30
2022-10-18T03:15:16.591Z,71.00
2022-10-18T03:17:44.396Z,68.00
2022-10-18T03:20:13.008Z,72.90
2022-10-18T03:22:40.614Z,70.90
2022-10-18T03:25:09.264Z,73.00
2022-10-18T03:27:40.231Z,69.00
2022-10-18T03:30:09.396Z,71.80
2022-10-18T03:32:36.931Z,71.80
2022-10-18T03:35:09.654Z,75.00
2022-10-18T03:37:38.832Z,74.70
2022-10-18T03:40:07.091Z,69.70
2022-10-18T03:42:35.036Z,69.60
2022-10-18T03:45:03.171Z,72.60
2022-10-18T03:47:32.572Z,75.50
2022-10-18T03:50:00.435Z,75.40
2022-10-18T03:52:28.270Z,74.50
2022-10-18T03:54:55.847Z,72.90
2022-10-18T03:57:24.192Z,74.00
2022-10-18T03:59:55.121Z,76.50
2022-10-18T04:02:24.119Z,69.70
2022-10-18T04:04:52.797Z,72.50
2022-10-18T04:07:20.700Z,70.90
2022-10-18T04:09:50.325Z,73.10
2022-10-18T04:12:18.168Z,72.30
2022-10-18T04:14:46.112Z,73.50
2022-10-18T04:17:14.326Z,73.00
2022-10-18T04:19:42.548Z,67.50
2022-10-18T04:22:12.355Z,67.60
2022-10-18T04:24:41.912Z,65.60
2022-10-18T04:27:10.244Z,69.70
2022-10-18T04:29:37.946Z,67.30
2022-10-18T04:32:06.085Z,66.20
2022-10-18T04:34:34.037Z,69.30
2022-10-18T04:37:01.681Z,67.40
2022-10-18T04:39:29.563Z,70.60
2022-10-18T04:41:57.257Z,72.40
2022-10-18T04:44:26.060Z,72.00
2022-10-18T04:46:54.503Z,69.60
2022-10-18T04:49:22.109Z,71.50
2022-10-18T04:51:50.480Z,69.60
2022-10-18T04:54:18.189Z,70.80
2022-10-18T04:56:46.603Z,64.70
2022-10-18T04:59:14.154Z,62.20
2022-10-18T05:01:42.064Z,66.50
2022-10-18T05:04:10.530Z,69.20
2022-10-18T05:06:38.515Z,70.00
2022-10-18T05:11:54.153Z,63.80
2022-10-18T05:14:22.964Z,64.80
2022-10-18T05:16:50.607Z,65.40
2022-10-18T05:19:18.847Z,67.20
2022-10-18T05:21:48.274Z,68.20
2022-10-18T05:24:16.467Z,70.30
2022-10-18T05:26:46.306Z,67.60
2022-10-18T05:29:14.062Z,64.20
2022-10-18T05:31:42.017Z,68.70
2022-10-18T05:34:09.669Z,71.00
2022-10-18T05:36:37.392Z,70.70
2022-10-18T05:39:05.603Z,70.60
2022-10-18T05:41:33.804Z,70.50
2022-10-18T05:44:05.447Z,70.60
2022-10-18T05:46:33.149Z,64.60
2022-10-18T05:49:00.820Z,65.90
2022-10-18T05:51:28.990Z,63.60
2022-10-18T05:53:57.280Z,63.90
2022-10-18T05:56:25.448Z,63.50
2022-10-18T05:58:54.171Z,62.90
2022-10-18T06:01:22.630Z,65.40
2022-10-18T06:03:51.230Z,65.60
2022-10-18T06:06:19.670Z,66.50
2022-10-18T06:08:49.802Z,67.30
2022-10-18T06:11:18.827Z,68.70
2022-10-18T06:13:49.500Z,65.90
2022-10-18T06:16:25.438Z,63.60
2022-10-18T06:18:56.536Z,62.50
2022-10-18T06:21:26.645Z,65.90
2022-10-18T06:23:55.998Z,65.10
2022-10-18T06:26:28.320Z,63.90
2022-10-18T06:28:57.381Z,59.40
2022-10-18T06:31:25.232Z,66.40
2022-10-18T06:33:52.866Z,65.90
2022-10-18T06:36:25.066Z,66.50
2022-10-18T06:38:53.205Z,67.90
2022-10-18T06:41:21.170Z,65.20
2022-10-18T06:43:53.469Z,67.00
2022-10-18T06:46:21.227Z,63.90
2022-10-18T06:48:49.336Z,64.60
2022-10-18T06:51:18.612Z,68.00
2022-10-18T06:53:59.133Z,66.70
2022-10-18T06:56:35.810Z,62.50
2022-10-18T06:59:06.211Z,64.90
2022-10-18T07:01:34.902Z,63.60
2022-10-18T07:04:02.957Z,61.80
2022-10-18T07:06:32.119Z,62.60
2022-10-18T07:09:05.928Z,64.40
2022-10-18T07:11:33.650Z,65.60
2022-10-18T07:14:03.589Z,60.10
2022-10-18T07:16:33.232Z,63.70
2022-10-18T07:19:02.142Z,63.80
2022-10-18T07:21:30.681Z,64.70
2022-10-18T07:24:00.093Z,64.50
2022-10-18T07:32:20.502Z,66.50
2022-10-18T07:34:48.457Z,64.90
2022-10-18T07:37:17.055Z,64.80
2022-10-18T07:39:44.852Z,62.50
2022-10-18T07:42:12.724Z,64.60
2022-10-18T07:44:40.477Z,65.40
2022-10-18T07:47:08.288Z,67.20
2022-10-18T07:49:37.201Z,65.00
2022-10-18T07:52:12.419Z,66.50
2022-10-18T07:54:41.086Z,65.50
2022-10-18T07:57:09.429Z,67.10
2022-10-18T07:59:38.926Z,66.60
2022-10-18T08:02:09.117Z,66.80
2022-10-18T08:04:36.633Z,66.00
2022-10-18T08:07:05.125Z,63.70
2022-10-18T08:09:32.813Z,64.40
2022-10-18T08:12:01.731Z,63.70
2022-10-18T08:14:30.593Z,63.00
2022-10-18T08:16:58.366Z,65.60
2022-10-18T08:19:25.989Z,65.70
2022-10-18T08:21:53.540Z,66.00
2022-10-18T08:24:21.079Z,66.50
2022-10-18T08:26:50.394Z,66.20
2022-10-18T08:29:23.367Z,67.40
2022-10-18T08:31:53.495Z,66.60
2022-10-18T08:34:21.243Z,66.30
2022-10-18T08:36:49.018Z,66.50
2022-10-18T08:39:17.125Z,66.00
2022-10-18T08:42:23.215Z,64.00
2022-10-18T08:44:53.577Z,64.60
2022-10-18T08:47:31.770Z,65.10
2022-10-18T08:50:03.148Z,66.00
2022-10-18T08:55:08.402Z,62.80
2022-10-18T08:57:36.085Z,62.90
2022-10-18T09:00:22.653Z,65.60
2022-10-18T09:03:16.556Z,64.70
2022-10-18T09:05:57.127Z,64.20
2022-10-18T09:08:27.807Z,64.90
2022-10-18T09:10:55.606Z,63.70
2022-10-18T09:13:29.705Z,63.40
2022-10-18T09:16:02.493Z,62.20
2022-10-18T09:18:57.664Z,64.00
2022-10-18T09:21:38.225Z,63.20
2022-10-18T09:24:12.663Z,63.40
2022-10-18T09:26:47.742Z,62.20
2022-10-18T09:29:38.176Z,63.20
2022-10-18T09:32:14.779Z,63.80
2022-10-18T09:34:58.691Z,64.00
2022-10-18T09:37:42.975Z,60.90
2022-10-18T09:40:33.683Z,60.70
2022-10-18T09:43:12.240Z,62.30
2022-10-18T09:45:45.854Z,62.40
2022-10-18T09:48:26.662Z,61.80
2022-10-18T09:51:05.461Z,61.50
2022-10-18T09:53:40.124Z,61.40
2022-10-18T09:56:08.311Z,61.90
2022-10-18T09:58:46.941Z,61.80
2022-10-18T10:01:26.553Z,62.40
2022-10-18T10:03:56.635Z,64.10
2022-10-18T10:06:27.205Z,64.50
2022-10-18T10:09:15.032Z,63.30
2022-10-18T10:11:48.522Z,64.00
2022-10-18T10:16:47.804Z,64.60
2022-10-18T10:19:35.764Z,65.50
2022-10-18T10:22:12.774Z,65.10
2022-10-18T10:24:54.219Z,65.00
2022-10-18T10:27:25.286Z,65.20
2022-10-18T10:29:56.905Z,65.40
2022-10-18T10:34:55.550Z,64.00
2022-10-18T10:37:26.303Z,65.60
2022-10-18T10:40:18.205Z,65.70
2022-10-18T10:43:33.006Z,66.20
2022-10-18T10:46:03.622Z,66.20
2022-10-18T10:51:32.963Z,67.20
2022-10-18T10:54:03.837Z,67.00
2022-10-18T10:56:38.447Z,66.70
2022-10-18T10:59:19.182Z,67.00
2022-10-18T11:01:50.173Z,67.00
2022-10-18T11:04:26.952Z,67.20
2022-10-18T11:06:55.132Z,67.60
2022-10-18T11:09:29.246Z,67.90
2022-10-18T11:12:03.025Z,68.10
2022-10-18T11:14:33.203Z,68.40
2022-10-18T11:17:07.697Z,68.40
2022-10-18T11:19:39.579Z,69.30
2022-10-18T11:22:10.270Z,69.20
2022-10-18T11:24:38.008Z,69.60
2022-10-18T11:27:17.561Z,69.70
2022-10-18T11:29:45.191Z,69.60
2022-10-18T11:32:22.461Z,69.70
2022-10-18T11:35:03.733Z,70.10
2022-10-18T11:37:34.702Z,70.40
2022-10-18T11:40:23.624Z,70.60
2022-10-18T11:42:59.366Z,70.90
2022-10-18T11:45:39.297Z,71.20
2022-10-18T11:48:23.620Z,71.20
2022-10-18T11:51:03.363Z,71.40
2022-10-18T11:53:42.810Z,71.30
2022-10-18T11:56:17.096Z,71.50
2022-10-18T11:58:48.628Z,71.70
2022-10-18T12:01:26.162Z,71.80
2022-10-18T12:03:57.163Z,72.00
2022-10-18T12:06:26.992Z,72.30
2022-10-18T12:09:03.669Z,72.30
2022-10-18T12:11:40.952Z,72.50
2022-10-18T12:14:18.377Z,72.50
2022-10-18T12:16:51.593Z,72.60
2022-10-18T12:19:26.684Z,72.80
2022-10-18T12:21:58.582Z,72.80
2022-10-18T12:24:28.396Z,72.90
2022-10-18T12:26:58.560Z,73.30
2022-10-18T12:29:33.700Z,73.40
2022-10-18T12:32:01.264Z,73.50
2022-10-18T12:34:33.063Z,73.60
2022-10-18T12:37:00.693Z,73.90
2022-10-18T12:39:45.089Z,74.10
2022-10-18T12:42:27.469Z,74.10
2022-10-18T12:45:02.702Z,74.20
2022-10-18T12:47:30.956Z,74.50
2022-10-18T12:50:00.617Z,74.70
2022-10-18T12:52:34.601Z,74.70
2022-10-18T12:55:06.759Z,75.00
2022-10-18T12:57:53.399Z,75.00
2022-10-18T13:00:31.082Z,75.20
2022-10-18T13:03:13.627Z,76.00
2022-10-18T13:05:54.310Z,75.50
2022-10-18T13:08:29.154Z,75.50
2022-10-18T13:11:02.645Z,75.80
2022-10-18T13:13:40.635Z,75.80
2022-10-18T13:16:21.755Z,75.90
2022-10-18T13:19:07.711Z,76.00
2022-10-18T13:21:37.292Z,76.40
2022-10-18T13:24:10.322Z,76.70
2022-10-18T13:26:54.053Z,76.80
2022-10-18T13:29:32.039Z,77.00
2022-10-18T13:32:04.343Z,76.80
2022-10-18T13:34:39.057Z,77.00
2022-10-18T13:37:09.968Z,77.00
2022-10-18T13:39:38.822Z,77.00
2022-10-18T13:42:15.494Z,77.10
2022-10-18T13:44:46.759Z,77.10
2022-10-18T13:47:33.924Z,77.20
2022-10-18T13:50:03.993Z,77.10
2022-10-18T13:52:50.248Z,77.00
2022-10-18T13:55:43.996Z,77.00
2022-10-18T13:58:12.601Z,77.00
2022-10-18T14:00:49.924Z,76.90
2022-10-18T14:06:25.438Z,77.00
2022-10-18T14:09:13.810Z,77.30
2022-10-18T14:11:58.159Z,77.30
2022-10-18T14:14:45.886Z,77.40
2022-10-18T14:17:18.018Z,77.70
2022-10-18T14:19:57.759Z,78.00
2022-10-18T14:22:28.203Z,78.10
2022-10-18T14:24:57.545Z,78.10
2022-10-18T14:27:29.386Z,78.20
2022-10-18T14:30:16.557Z,78.20
2022-10-18T14:32:52.751Z,78.10
2022-10-18T14:35:32.713Z,78.30
2022-10-18T14:38:01.493Z,78.30
2022-10-18T14:40:42.571Z,78.20
2022-10-18T14:43:10.294Z,78.00
2022-10-18T14:45:39.095Z,78.20
2022-10-18T14:48:07.517Z,78.20
2022-10-18T14:50:35.226Z,78.20
2022-10-18T14:53:09.746Z,78.40
2022-10-18T14:55:40.258Z,78.90
2022-10-18T14:58:16.046Z,79.00
2022-10-18T15:00:46.324Z,78.70
2022-10-18T15:03:17.592Z,79.20
2022-10-18T15:06:01.697Z,79.20
2022-10-18T15:08:37.295Z,79.20
2022-10-18T15:11:05.089Z,79.20
2022-10-18T15:13:34.456Z,79.30
2022-10-18T15:16:03.212Z,79.00
2022-10-18T15:21:19.089Z,78.70
2022-10-18T15:23:47.524Z,78.60
2022-10-18T15:26:16.924Z,78.70
2022-10-18T15:28:51.587Z,78.70
2022-10-18T15:31:23.968Z,79.30
2022-10-18T15:33:52.122Z,78.60
2022-10-18T15:36:28.393Z,78.50
2022-10-18T15:39:15.090Z,78.50
2022-10-18T15:41:51.727Z,78.50
2022-10-18T15:44:24.417Z,78.40
2022-10-18T15:46:53.374Z,78.40
2022-10-18T15:49:39.083Z,78.30
2022-10-18T15:52:11.026Z,78.30
2022-10-18T15:54:39.265Z,78.30
2022-10-18T15:57:10.723Z,78.30
2022-10-18T15:59:41.516Z,78.30
2022-10-18T16:02:12.993Z,78.50
2022-10-18T16:04:40.519Z,78.50
2022-10-18T16:07:11.213Z,78.50
2022-10-18T16:09:39.596Z,78.70
2022-10-18T16:12:07.959Z,78.70
2022-10-18T16:14:36.477Z,78.90
2022-10-18T16:17:05.468Z,79.20
2022-10-18T16:19:34.269Z,79.20
2022-10-18T16:22:06.679Z,79.40
2022-10-18T16:24:35.262Z,79.80
2022-10-18T16:27:02.818Z,79.60
2022-10-18T16:29:33.123Z,79.70
2022-10-18T16:32:01.428Z,80.00
2022-10-18T16:34:29.106Z,79.50
2022-10-18T16:36:56.584Z,79.90
2022-10-18T16:39:25.095Z,79.80
2022-10-18T16:41:53.473Z,79.80
2022-10-18T16:44:21.919Z,79.90
2022-10-18T16:46:52.374Z,80.00
2022-10-18T16:49:24.333Z,80.00
2022-10-18T16:51:55.692Z,79.90
2022-10-18T16:54:23.795Z,80.20
2022-10-18T16:56:51.702Z,79.90
2022-10-18T16:59:23.722Z,80.10
2022-10-18T17:01:51.399Z,80.20
2022-10-18T17:04:19.028Z,80.20
2022-10-18T17:06:47.831Z,80.20
2022-10-18T17:09:17.066Z,80.50
2022-10-18T17:11:45.500Z,80.30
2022-10-18T17:14:13.890Z,80.30
2022-10-18T17:16:44.519Z,80.50
2022-10-18T17:19:15.992Z,80.70
2022-10-18T17:21:44.300Z,80.50
2022-10-18T17:24:12.183Z,80.70
2022-10-18T17:26:40.621Z,80.70
2022-10-18T17:29:09.302Z,80.50
2022-10-18T17:31:37.783Z,80.60
2022-10-18T17:34:06.225Z,80.60
2022-10-18T17:36:35.004Z,80.50
2022-10-18T17:39:02.793Z,80.50
2022-10-18T17:41:30.624Z,80.60
2022-10-18T17:43:58.964Z,80.50
2022-10-18T17:46:26.631Z,80.90
2022-10-18T17:48:55.155Z,81.00
2022-10-18T17:51:23.023Z,81.50
2022-10-18T17:53:50.587Z,81.40
2022-10-18T17:56:18.102Z,81.10
2022-10-18T17:58:47.099Z,81.10
2022-10-18T18:01:17.441Z,81.10
2022-10-18T18:03:46.006Z,81.10
2022-10-18T18:06:20.640Z,81.10
2022-10-18T18:08:49.330Z,81.10
2022-10-18T18:11:18.278Z,81.00
2022-10-18T18:13:46.808Z,81.00
2022-10-18T18:16:15.930Z,80.90
2022-10-18T18:18:43.792Z,80.90
2022-10-18T18:21:11.509Z,81.00
2022-10-18T18:23:39.837Z,80.90
2022-10-18T18:26:08.260Z,80.90
2022-10-18T18:28:39.667Z,80.90
2022-10-18T18:31:08.466Z,80.80
2022-10-18T18:33:36.664Z,80.80
2022-10-18T18:36:05.966Z,80.80
2022-10-18T18:38:33.919Z,80.80
2022-10-18T18:41:05.324Z,80.80
2022-10-18T18:43:32.902Z,80.80
2022-10-18T18:46:01.388Z,80.90
2022-10-18T18:48:29.951Z,80.80
2022-10-18T18:50:58.347Z,80.90
2022-10-18T18:53:28.693Z,80.90
2022-10-18T18:56:04.885Z,81.10
2022-10-18T18:58:32.842Z,81.30
2022-10-18T19:01:01.175Z,81.20
2022-10-18T19:03:28.873Z,81.10
2022-10-18T19:06:07.087Z,81.30
2022-10-18T19:08:38.589Z,81.30
2022-10-18T19:11:09.382Z,81.20
2022-10-18T19:13:38.354Z,81.20
2022-10-18T19:16:19.005Z,81.30
2022-10-18T19:18:53.546Z,81.30
2022-10-18T19:21:21.697Z,81.50
2022-10-18T19:23:50.423Z,81.70
2022-10-18T19:26:33.365Z,81.90
2022-10-18T19:29:02.261Z,81.70
2022-10-18T19:31:30.641Z,81.80
2022-10-18T19:33:59.819Z,81.70
2022-10-18T19:36:28.300Z,81.70
2022-10-18T19:38:56.715Z,81.60
2022-10-18T19:43:58.162Z,81.80
2022-10-18T19:46:26.648Z,82.40
2022-10-18T19:48:54.522Z,81.80
2022-10-18T19:51:25.514Z,81.80
2022-10-18T19:53:57.587Z,81.90
2022-10-18T19:56:26.475Z,81.80
2022-10-18T19:58:54.294Z,82.20
2022-10-18T20:01:22.786Z,82.30
2022-10-18T20:03:51.344Z,82.50
2022-10-18T20:06:18.943Z,82.60
2022-10-18T20:08:46.587Z,83.10
2022-10-18T20:11:16.254Z,82.30
2022-10-18T20:13:45.311Z,82.30
2022-10-18T20:16:14.447Z,82.20
2022-10-18T20:18:44.989Z,82.30
2022-10-18T20:21:14.250Z,82.40
2022-10-18T20:23:42.786Z,82.40
2022-10-18T20:26:18.300Z,82.70
2022-10-18T20:28:49.128Z,82.70
2022-10-18T20:31:18.200Z,82.90
2022-10-18T20:33:46.513Z,83.30
2022-10-18T20:36:15.231Z,83.10
2022-10-18T20:38:44.226Z,83.60
2022-10-18T20:41:16.670Z,84.10
2022-10-18T20:43:44.476Z,84.30
2022-10-18T20:46:12.117Z,84.40
2022-10-18T20:48:40.509Z,84.60
2022-10-18T20:51:10.488Z,85.00
2022-10-18T20:53:38.236Z,85.10
2022-10-18T20:56:09.815Z,85.00
2022-10-18T20:58:38.117Z,85.00
2022-10-18T21:01:07.842Z,85.10
2022-10-18T21:03:36.936Z,85.70
2022-10-18T21:06:33.697Z,85.80
2022-10-18T21:09:03.414Z,85.40
2022-10-18T21:11:32.228Z,85.80
2022-10-18T21:14:03.547Z,85.30
2022-10-18T21:16:35.270Z,85.30
2022-10-18T21:19:04.736Z,86.80
2022-10-18T21:21:33.269Z,87.10
2022-10-18T21:24:05.317Z,86.80
2022-10-18T21:26:35.759Z,86.80
2022-10-18T21:29:05.375Z,86.90
2022-10-18T21:31:35.752Z,86.70
2022-10-18T21:34:04.768Z,86.80
2022-10-18T21:36:33.120Z,86.50
2022-10-18T21:39:01.452Z,87.40
2022-10-18T21:41:29.817Z,87.60
2022-10-18T21:43:58.127Z,88.40
2022-10-18T21:46:27.246Z,89.40
2022-10-18T21:48:56.389Z,89.20
2022-10-18T21:51:25.463Z,89.30
2022-10-18T21:53:55.157Z,88.50
2022-10-18T21:56:30.025Z,89.40
2022-10-18T21:58:58.159Z,89.30
2022-10-18T22:01:27.492Z,89.50
2022-10-18T22:03:56.958Z,89.80
2022-10-18T22:06:25.359Z,88.80
2022-10-18T22:08:54.513Z,89.80
2022-10-18T22:11:27.086Z,90.10
2022-10-18T22:13:55.335Z,89.50
2022-10-18T22:16:24.004Z,90.20
2022-10-18T22:18:52.474Z,90.40
2022-10-18T22:21:20.736Z,89.90
2022-10-18T22:23:51.182Z,90.20
2022-10-18T22:26:20.603Z,89.30
2022-10-18T22:28:49.400Z,89.60
2022-10-18T22:31:18.144Z,89.10
2022-10-18T22:33:46.020Z,89.60
2022-10-18T22:36:14.459Z,89.60
2022-10-18T22:38:43.013Z,89.60
2022-10-18T22:41:11.453Z,90.20
2022-10-18T22:47:02.025Z,90.40
2022-10-18T22:49:29.641Z,90.20
2022-10-18T22:51:57.204Z,89.50
2022-10-18T22:54:25.565Z,89.40
2022-10-18T22:56:53.940Z,90.00
2022-10-18T22:59:22.300Z,90.10
2022-10-18T23:01:49.872Z,90.10
2022-10-18T23:04:18.225Z,90.20
2022-10-18T23:06:46.081Z,90.40
2022-10-18T23:09:13.648Z,90.20
2022-10-18T23:11:41.223Z,90.70
2022-10-18T23:14:08.763Z,90.70
2022-10-18T23:16:36.801Z,90.60
2022-10-18T23:19:05.224Z,90.90
2022-10-18T23:21:34.108Z,90.90
2022-10-18T23:24:01.865Z,91.10
2022-10-18T23:26:29.437Z,91.20
2022-10-18T23:28:57.006Z,90.90
2022-10-18T23:31:26.178Z,91.30
2022-10-18T23:33:55.499Z,91.20
2022-10-18T23:36:23.640Z,91.90
2022-10-18T23:38:51.636Z,91.90
2022-10-18T23:41:19.279Z,91.80
2022-10-18T23:43:47.222Z,91.60
2022-10-18T23:46:15.786Z,91.80
2022-10-18T23:48:43.620Z,91.60
2022-10-18T23:51:11.196Z,92.00
2022-10-18T23:53:39.099Z,92.00
2022-10-18T23:56:11.333Z,92.10
2022-10-18T23:58:39.588Z,92.10
